Time;durP1;ratioP1;P1;durP2;ratioP2;P2;SDS_P1;SDS_P2;PMS_P1;PMS_P2;Temp;Humidity;BMP_temperature;BMP_pressure;BME280_temperature;BME280_humidity;BME280_pressure;Samples;Min_cycle;Max_cycle;Signal;HPM_P1;HPM_P2
2021/06/28 00:00:25;;;;;;;9.15;4.97;;;;;;;;;;5058977;28;20043;-62
2021/06/28 00:02:53;;;;;;;10.10;5.93;;;;;;;;;;5058160;28;20080;-62
2021/06/28 00:05:19;;;;;;;11.10;5.88;;;;;;;;;;5058907;28;20032;-62
2021/06/28 00:07:45;;;;;;;10.68;6.00;;;;;;;;;;5058242;28;20093;-62
2021/06/28 00:10:35;;;;;;;13.68;5.97;;;;;;;;;;5057859;28;20025;-61
2021/06/28 00:13:01;;;;;;;9.20;4.80;;;;;;;;;;5047011;28;20119;-61
2021/06/28 00:15:28;;;;;;;12.70;5.53;;;;;;;;;;5048690;28;20041;-62
2021/06/28 00:17:57;;;;;;;11.35;5.50;;;;;;;;;;5057382;28;20126;-63
2021/06/28 00:20:25;;;;;;;9.80;5.30;;;;;;;;;;5058152;28;20048;-61
2021/06/28 00:22:53;;;;;;;13.50;5.68;;;;;;;;;;5056622;28;21034;-61
2021/06/28 00:25:20;;;;;;;11.63;5.75;;;;;;;;;;5058848;28;20107;-61
2021/06/28 00:27:49;;;;;;;11.20;6.05;;;;;;;;;;5056642;28;20025;-61
2021/06/28 00:33:50;;;;;;;13.45;5.57;;;;;;;;;;5055167;28;20509;-61
2021/06/28 00:36:16;;;;;;;13.30;5.43;;;;;;;;;;5058598;28;20443;-62
2021/06/28 00:38:42;;;;;;;16.77;5.07;;;;;;;;;;5043080;28;20070;-61
2021/06/28 00:41:08;;;;;;;10.75;5.18;;;;;;;;;;5059083;28;20738;-62
2021/06/28 00:43:34;;;;;;;11.27;5.57;;;;;;;;;;5058334;28;20044;-61
2021/06/28 00:45:59;;;;;;;12.57;4.65;;;;;;;;;;5048834;28;20035;-61
2021/06/28 00:48:26;;;;;;;10.52;4.30;;;;;;;;;;5058178;28;20020;-61
2021/06/28 00:50:53;;;;;;;17.45;4.68;;;;;;;;;;5040107;28;20044;-62
2021/06/28 00:53:21;;;;;;;8.98;3.97;;;;;;;;;;5057544;28;20024;-61
2021/06/28 00:55:46;;;;;;;8.85;4.03;;;;;;;;;;5048927;28;20037;-61
2021/06/28 00:58:13;;;;;;;7.15;4.35;;;;;;;;;;5057981;28;20028;-61
2021/06/28 01:00:38;;;;;;;9.10;4.30;;;;;;;;;;5057789;28;20111;-61
2021/06/28 01:03:05;;;;;;;9.38;4.03;;;;;;;;;;5057064;28;20118;-62
2021/06/28 01:05:32;;;;;;;8.38;3.88;;;;;;;;;;5059340;28;20119;-61
2021/06/28 01:08:01;;;;;;;6.13;4.10;;;;;;;;;;5042845;28;20042;-61
2021/06/28 01:10:27;;;;;;;13.13;4.32;;;;;;;;;;5057441;28;20025;-61
2021/06/28 01:12:55;;;;;;;7.35;4.15;;;;;;;;;;5025756;28;20051;-61
2021/06/28 01:15:21;;;;;;;5.00;3.65;;;;;;;;;;5015231;28;20031;-61
2021/06/28 01:17:47;;;;;;;9.50;3.90;;;;;;;;;;5057499;28;21029;-62
2021/06/28 01:20:15;;;;;;;10.55;4.20;;;;;;;;;;5039421;28;20081;-62
2021/06/28 01:22:42;;;;;;;5.93;4.22;;;;;;;;;;5056319;28;20035;-61
2021/06/28 01:25:09;;;;;;;11.02;4.35;;;;;;;;;;5040310;28;20092;-62
2021/06/28 01:27:38;;;;;;;11.85;4.55;;;;;;;;;;5056631;28;20109;-61
2021/06/28 01:30:05;;;;;;;11.32;4.28;;;;;;;;;;5058253;28;20027;-63
2021/06/28 01:32:32;;;;;;;10.40;4.20;;;;;;;;;;5042214;28;20201;-61
2021/06/28 01:34:59;;;;;;;7.40;4.43;;;;;;;;;;5057224;28;20904;-61
2021/06/28 01:37:26;;;;;;;9.40;4.03;;;;;;;;;;5056858;28;20082;-61
2021/06/28 01:39:53;;;;;;;9.38;4.13;;;;;;;;;;5030086;28;20411;-61
2021/06/28 01:42:19;;;;;;;9.02;4.65;;;;;;;;;;5057545;28;20039;-60
2021/06/28 01:44:45;;;;;;;10.82;5.15;;;;;;;;;;5057542;28;22074;-61
2021/06/28 01:47:16;;;;;;;7.60;4.57;;;;;;;;;;5042004;28;20132;-60
2021/06/28 01:49:44;;;;;;;8.90;5.00;;;;;;;;;;5039292;28;20165;-61
2021/06/28 01:52:09;;;;;;;9.65;5.55;;;;;;;;;;5056951;28;20024;-60
2021/06/28 01:54:35;;;;;;;10.10;5.43;;;;;;;;;;5022891;28;20574;-61
2021/06/28 01:57:01;;;;;;;10.82;5.32;;;;;;;;;;5042758;28;20503;-60
2021/06/28 01:59:29;;;;;;;10.93;6.10;;;;;;;;;;5040071;28;20115;-60
2021/06/28 02:01:57;;;;;;;14.07;5.80;;;;;;;;;;5056278;28;20024;-62
2021/06/28 02:04:24;;;;;;;12.57;6.15;;;;;;;;;;5056299;28;20029;-62
2021/06/28 02:06:49;;;;;;;11.70;6.38;;;;;;;;;;5037604;28;20028;-61
2021/06/28 02:09:15;;;;;;;14.80;6.30;;;;;;;;;;5056703;28;20031;-62
2021/06/28 02:11:40;;;;;;;13.52;5.93;;;;;;;;;;5048498;28;20036;-61
2021/06/28 02:14:06;;;;;;;15.38;6.93;;;;;;;;;;5056354;28;20538;-62
2021/06/28 02:16:32;;;;;;;15.98;6.45;;;;;;;;;;5039777;28;20040;-61
2021/06/28 02:18:57;;;;;;;21.08;6.63;;;;;;;;;;5054158;28;20029;-62
2021/06/28 02:21:23;;;;;;;14.18;6.75;;;;;;;;;;5023197;28;20090;-62
2021/06/28 02:23:48;;;;;;;15.93;6.30;;;;;;;;;;5029953;28;20067;-61
2021/06/28 02:26:14;;;;;;;13.82;7.05;;;;;;;;;;5042920;28;20029;-61
2021/06/28 02:28:44;;;;;;;15.73;6.78;;;;;;;;;;5040278;28;20132;-61
2021/06/28 02:31:11;;;;;;;14.18;6.75;;;;;;;;;;5056506;28;20043;-62
2021/06/28 02:33:39;;;;;;;14.13;6.32;;;;;;;;;;5038685;28;20624;-61
2021/06/28 02:36:05;;;;;;;12.80;6.38;;;;;;;;;;5054795;28;20044;-61
2021/06/28 02:38:33;;;;;;;12.82;6.50;;;;;;;;;;5056207;28;21919;-61
2021/06/28 02:41:00;;;;;;;17.55;7.13;;;;;;;;;;5042001;28;20112;-62
2021/06/28 02:43:30;;;;;;;16.52;6.93;;;;;;;;;;5060676;28;21125;-61
2021/06/28 02:45:56;;;;;;;15.13;6.00;;;;;;;;;;5061322;28;20086;-62
2021/06/28 02:48:22;;;;;;;18.95;6.88;;;;;;;;;;5043587;28;20065;-61
2021/06/28 02:50:48;;;;;;;12.68;6.53;;;;;;;;;;5051109;28;20036;-62
2021/06/28 02:53:17;;;;;;;12.85;6.93;;;;;;;;;;5051352;28;20042;-62
2021/06/28 02:55:47;;;;;;;12.77;5.68;;;;;;;;;;5046232;28;20121;-63
2021/06/28 02:58:14;;;;;;;13.93;6.93;;;;;;;;;;5060043;28;20020;-61
2021/06/28 03:00:39;;;;;;;14.13;6.93;;;;;;;;;;5059700;28;20032;-62
2021/06/28 03:03:05;;;;;;;13.65;6.63;;;;;;;;;;5059062;28;20037;-61
2021/06/28 03:05:30;;;;;;;10.48;6.63;;;;;;;;;;5060317;28;20041;-61
2021/06/28 03:07:56;;;;;;;15.63;6.55;;;;;;;;;;5024036;28;20031;-62
2021/06/28 03:10:22;;;;;;;12.75;6.78;;;;;;;;;;5060891;28;20119;-61
2021/06/28 03:12:48;;;;;;;14.00;7.10;;;;;;;;;;5041613;28;20220;-62
2021/06/28 03:15:18;;;;;;;11.80;5.78;;;;;;;;;;5059750;28;20028;-61
2021/06/28 03:17:46;;;;;;;9.88;6.80;;;;;;;;;;5060221;28;20020;-63
2021/06/28 03:20:13;;;;;;;13.23;7.03;;;;;;;;;;5057462;28;21979;-61
2021/06/28 03:22:39;;;;;;;14.77;7.43;;;;;;;;;;5031648;28;20024;-62
2021/06/28 03:25:09;;;;;;;15.50;6.57;;;;;;;;;;5041940;28;20040;-62
2021/06/28 03:27:35;;;;;;;14.68;6.72;;;;;;;;;;5050999;28;20039;-62
2021/06/28 03:30:03;;;;;;;14.65;6.35;;;;;;;;;;5059046;28;20040;-62
2021/06/28 03:32:30;;;;;;;16.00;7.57;;;;;;;;;;5059817;28;21024;-61
2021/06/28 03:34:59;;;;;;;16.50;6.55;;;;;;;;;;5060604;28;20021;-62
2021/06/28 03:37:27;;;;;;;22.02;7.30;;;;;;;;;;5057906;28;20042;-62
2021/06/28 03:39:53;;;;;;;10.10;6.75;;;;;;;;;;5028556;28;20016;-61
2021/06/28 03:42:19;;;;;;;12.02;6.90;;;;;;;;;;5044048;28;20142;-61
2021/06/28 03:44:44;;;;;;;16.58;7.13;;;;;;;;;;5056277;28;20040;-62
2021/06/28 03:47:12;;;;;;;13.27;6.75;;;;;;;;;;5025232;28;20036;-61
2021/06/28 03:49:37;;;;;;;10.05;6.55;;;;;;;;;;5025630;28;20153;-62
2021/06/28 03:52:04;;;;;;;11.48;6.18;;;;;;;;;;5043831;28;20043;-63
2021/06/28 03:54:34;;;;;;;14.50;6.63;;;;;;;;;;5059384;28;20119;-61
2021/06/28 03:57:00;;;;;;;15.15;6.03;;;;;;;;;;5042719;28;20028;-62
2021/06/28 03:59:26;;;;;;;9.77;6.30;;;;;;;;;;5058605;28;20032;-61
2021/06/28 04:01:52;;;;;;;12.50;6.38;;;;;;;;;;5040878;28;20460;-62
2021/06/28 04:04:19;;;;;;;12.00;4.93;;;;;;;;;;5057194;28;20035;-61
2021/06/28 04:06:44;;;;;;;12.75;5.80;;;;;;;;;;5059319;28;20032;-61
2021/06/28 04:09:12;;;;;;;16.20;5.82;;;;;;;;;;5056311;28;20044;-61
2021/06/28 04:11:38;;;;;;;10.30;5.80;;;;;;;;;;5041772;28;20127;-61
2021/06/28 04:14:04;;;;;;;14.50;5.75;;;;;;;;;;5048362;28;20036;-62
2021/06/28 04:16:30;;;;;;;14.00;6.13;;;;;;;;;;5039253;28;20028;-62
2021/06/28 04:18:58;;;;;;;10.77;5.72;;;;;;;;;;5040764;28;20800;-61
2021/06/28 04:21:24;;;;;;;13.18;5.82;;;;;;;;;;5058219;28;20370;-62
2021/06/28 04:23:49;;;;;;;10.55;4.82;;;;;;;;;;5048628;28;20157;-62
2021/06/28 04:26:15;;;;;;;14.98;5.32;;;;;;;;;;5042041;28;20070;-63
2021/06/28 04:28:40;;;;;;;7.10;5.07;;;;;;;;;;5024621;28;20040;-61
2021/06/28 04:31:07;;;;;;;12.00;4.53;;;;;;;;;;5057737;28;20044;-63
2021/06/28 04:33:32;;;;;;;15.07;5.60;;;;;;;;;;5039283;28;20227;-63
2021/06/28 04:35:58;;;;;;;17.17;5.20;;;;;;;;;;5057826;28;20113;-63
2021/06/28 04:38:26;;;;;;;12.73;5.50;;;;;;;;;;5058528;28;20032;-63
2021/06/28 04:40:52;;;;;;;12.93;5.20;;;;;;;;;;5049495;28;20081;-62
2021/06/28 04:43:17;;;;;;;10.45;4.97;;;;;;;;;;5056841;28;20020;-63
2021/06/28 04:45:43;;;;;;;9.25;4.28;;;;;;;;;;5042163;28;20043;-62
2021/06/28 04:48:09;;;;;;;13.55;4.90;;;;;;;;;;5057190;28;20050;-63
2021/06/28 04:50:34;;;;;;;9.65;5.50;;;;;;;;;;5058438;28;20035;-62
2021/06/28 04:53:00;;;;;;;10.82;4.78;;;;;;;;;;5026155;28;20384;-62
2021/06/28 04:55:25;;;;;;;6.45;4.10;;;;;;;;;;5049302;28;20051;-62
2021/06/28 04:57:52;;;;;;;14.05;4.57;;;;;;;;;;5048232;28;20020;-62
2021/06/28 05:00:19;;;;;;;10.57;4.35;;;;;;;;;;5058346;28;20039;-62
2021/06/28 05:02:45;;;;;;;8.43;4.65;;;;;;;;;;5057303;28;20078;-62
2021/06/28 05:05:11;;;;;;;6.63;4.47;;;;;;;;;;5047847;28;20039;-62
2021/06/28 05:07:37;;;;;;;9.75;4.47;;;;;;;;;;5057054;28;20047;-63
2021/06/28 05:10:04;;;;;;;12.63;5.20;;;;;;;;;;5057884;28;20115;-62
2021/06/28 05:12:29;;;;;;;7.72;5.00;;;;;;;;;;5044292;28;20169;-62
2021/06/28 05:14:57;;;;;;;7.30;4.82;;;;;;;;;;5057755;28;20173;-62
2021/06/28 05:17:26;;;;;;;12.85;4.70;;;;;;;;;;5055959;28;20032;-62
2021/06/28 05:19:54;;;;;;;8.23;4.45;;;;;;;;;;5047961;28;20037;-62
2021/06/28 05:22:19;;;;;;;11.32;4.97;;;;;;;;;;5057244;28;20143;-63
2021/06/28 05:24:45;;;;;;;6.45;4.22;;;;;;;;;;5048304;28;20035;-63
2021/06/28 05:27:10;;;;;;;9.90;4.38;;;;;;;;;;5057961;28;20065;-61
2021/06/28 05:29:36;;;;;;;15.65;4.40;;;;;;;;;;5023592;28;20028;-61
2021/06/28 05:32:03;;;;;;;10.13;4.03;;;;;;;;;;5040208;28;20055;-61
2021/06/28 05:34:28;;;;;;;9.40;4.15;;;;;;;;;;5037865;28;20074;-61
2021/06/28 05:36:54;;;;;;;10.98;4.22;;;;;;;;;;5046710;28;20036;-61
2021/06/28 05:39:20;;;;;;;6.20;3.97;;;;;;;;;;5039069;28;20036;-62
2021/06/28 05:41:46;;;;;;;10.35;4.20;;;;;;;;;;5054102;28;20042;-62
2021/06/28 05:44:13;;;;;;;7.22;4.07;;;;;;;;;;5025967;28;20048;-61
2021/06/28 05:46:39;;;;;;;10.63;4.00;;;;;;;;;;5055861;28;20043;-62
2021/06/28 05:49:07;;;;;;;9.05;4.18;;;;;;;;;;5043076;28;20037;-62
2021/06/28 05:51:33;;;;;;;6.75;4.30;;;;;;;;;;5055864;28;20029;-62
2021/06/28 05:54:01;;;;;;;5.35;4.45;;;;;;;;;;5054966;28;20051;-63
2021/06/28 05:56:26;;;;;;;7.53;4.00;;;;;;;;;;5056518;28;20040;-62
2021/06/28 05:58:52;;;;;;;6.35;4.03;;;;;;;;;;5031176;28;20024;-63
2021/06/28 06:01:20;;;;;;;8.48;3.92;;;;;;;;;;5021599;28;20033;-63
2021/06/28 06:03:48;;;;;;;8.18;3.10;;;;;;;;;;5040562;28;20490;-62
2021/06/28 06:06:13;;;;;;;7.47;3.38;;;;;;;;;;5037627;28;20036;-63
2021/06/28 06:08:39;;;;;;;6.43;3.17;;;;;;;;;;5055672;28;20044;-62
2021/06/28 06:11:08;;;;;;;6.85;3.03;;;;;;;;;;5039523;28;22298;-62
2021/06/28 06:13:34;;;;;;;6.30;2.95;;;;;;;;;;5042904;28;20034;-61
2021/06/28 06:15:59;;;;;;;6.95;2.88;;;;;;;;;;5049130;28;20036;-61
2021/06/28 06:18:28;;;;;;;7.53;3.33;;;;;;;;;;5058123;28;20139;-62
2021/06/28 06:20:53;;;;;;;11.00;3.28;;;;;;;;;;5057745;28;20040;-62
2021/06/28 06:23:19;;;;;;;4.97;2.83;;;;;;;;;;5059152;28;20028;-64
2021/06/28 06:25:45;;;;;;;6.30;3.00;;;;;;;;;;5028555;28;20043;-63
2021/06/28 06:28:12;;;;;;;4.90;2.75;;;;;;;;;;5040091;28;20045;-63
2021/06/28 06:30:42;;;;;;;8.13;2.88;;;;;;;;;;5051132;28;20031;-64
2021/06/28 06:33:07;;;;;;;12.13;2.60;;;;;;;;;;5042213;28;20036;-63
2021/06/28 06:35:34;;;;;;;6.07;2.70;;;;;;;;;;5059126;28;20047;-62
2021/06/28 06:38:00;;;;;;;12.32;2.50;;;;;;;;;;5058391;28;20459;-62
2021/06/28 06:40:26;;;;;;;8.95;2.53;;;;;;;;;;5050931;28;20039;-64
2021/06/28 06:42:55;;;;;;;11.93;2.60;;;;;;;;;;5049349;28;20110;-62
2021/06/28 06:45:21;;;;;;;6.30;2.38;;;;;;;;;;5059363;28;20044;-62
2021/06/28 06:47:47;;;;;;;5.55;2.40;;;;;;;;;;5058636;28;20113;-63
2021/06/28 06:50:13;;;;;;;4.88;2.35;;;;;;;;;;5042056;28;20025;-63
2021/06/28 06:52:39;;;;;;;6.72;2.03;;;;;;;;;;5058533;28;20138;-63
2021/06/28 06:55:07;;;;;;;3.72;2.05;;;;;;;;;;5059899;28;22215;-63
2021/06/28 06:57:33;;;;;;;4.35;2.53;;;;;;;;;;5058417;28;20035;-63
2021/06/28 06:59:59;;;;;;;3.60;2.10;;;;;;;;;;5059465;28;20035;-62
2021/06/28 07:02:26;;;;;;;2.80;2.08;;;;;;;;;;5025411;28;20039;-63
2021/06/28 07:04:52;;;;;;;6.72;2.25;;;;;;;;;;5058618;28;20490;-63
2021/06/28 07:07:17;;;;;;;3.60;2.33;;;;;;;;;;5058478;28;20039;-63
2021/06/28 07:09:45;;;;;;;4.50;2.03;;;;;;;;;;5032418;28;20032;-63
2021/06/28 07:12:10;;;;;;;4.18;1.80;;;;;;;;;;5045272;28;20712;-63
2021/06/28 07:14:36;;;;;;;6.57;2.38;;;;;;;;;;5042543;28;20514;-62
2021/06/28 07:17:03;;;;;;;7.72;2.60;;;;;;;;;;5057770;28;20036;-63
2021/06/28 07:19:29;;;;;;;4.68;2.95;;;;;;;;;;5056728;28;21386;-64
2021/06/28 07:21:56;;;;;;;5.00;1.88;;;;;;;;;;5056721;28;20170;-62
2021/06/28 07:24:21;;;;;;;4.00;2.17;;;;;;;;;;5039631;28;22330;-62
2021/06/28 07:26:48;;;;;;;3.55;2.22;;;;;;;;;;5057520;28;20143;-62
2021/06/28 07:29:13;;;;;;;6.25;2.55;;;;;;;;;;5058985;28;20150;-62
2021/06/28 07:31:39;;;;;;;7.28;2.13;;;;;;;;;;5050509;28;20042;-63
2021/06/28 07:34:05;;;;;;;3.72;2.00;;;;;;;;;;5030488;28;20043;-62
2021/06/28 07:36:33;;;;;;;2.45;1.90;;;;;;;;;;5045103;28;21930;-63
2021/06/28 07:39:02;;;;;;;3.25;2.00;;;;;;;;;;5058301;28;20633;-62
2021/06/28 07:41:29;;;;;;;2.13;1.90;;;;;;;;;;5058910;28;20032;-62
2021/06/28 07:43:57;;;;;;;3.50;1.95;;;;;;;;;;5051207;28;20443;-63
2021/06/28 07:46:23;;;;;;;4.13;2.05;;;;;;;;;;5058450;28;20234;-63
2021/06/28 07:48:48;;;;;;;3.42;2.40;;;;;;;;;;5027646;28;20541;-63
2021/06/28 07:51:16;;;;;;;8.20;2.40;;;;;;;;;;5041676;28;20032;-63
2021/06/28 07:53:42;;;;;;;7.38;2.65;;;;;;;;;;5043613;28;20028;-65
2021/06/28 07:56:40;;;;;;;4.75;2.22;;;;;;;;;;5059152;28;20487;-62
2021/06/28 07:58:59;;;;;;;9.00;2.72;;;;;;;;;;5042849;28;20044;-62
2021/06/28 08:01:25;;;;;;;6.63;2.03;;;;;;;;;;5042089;28;20035;-62
2021/06/28 08:03:50;;;;;;;5.75;2.35;;;;;;;;;;5048082;28;20731;-63
2021/06/28 08:06:17;;;;;;;4.28;2.58;;;;;;;;;;5058447;28;20070;-63
2021/06/28 08:08:50;;;;;;;4.70;2.92;;;;;;;;;;5057852;28;20360;-63
2021/06/28 08:11:20;;;;;;;3.30;2.50;;;;;;;;;;5057388;28;20028;-63
2021/06/28 08:13:46;;;;;;;6.13;2.90;;;;;;;;;;5049350;28;20028;-63
2021/06/28 08:16:18;;;;;;;5.22;2.40;;;;;;;;;;5057551;28;20031;-63
2021/06/28 08:18:47;;;;;;;4.78;2.40;;;;;;;;;;5057191;28;20055;-63
2021/06/28 08:21:16;;;;;;;4.35;2.90;;;;;;;;;;5040194;28;20977;-63
2021/06/28 08:23:41;;;;;;;5.65;2.28;;;;;;;;;;5046404;28;20028;-63
2021/06/28 08:26:07;;;;;;;6.45;2.30;;;;;;;;;;5027177;28;20437;-63
2021/06/28 08:28:33;;;;;;;4.65;2.70;;;;;;;;;;5040748;28;20074;-64
2021/06/28 08:30:59;;;;;;;4.93;2.20;;;;;;;;;;5031432;28;20119;-62
2021/06/28 08:33:26;;;;;;;3.88;2.50;;;;;;;;;;5055280;28;20103;-63
2021/06/28 08:35:54;;;;;;;6.15;2.63;;;;;;;;;;5040438;28;20036;-64
2021/06/28 08:38:20;;;;;;;3.42;2.63;;;;;;;;;;5040287;28;20028;-62
2021/06/28 08:40:45;;;;;;;8.85;2.35;;;;;;;;;;5058138;28;20506;-63
2021/06/28 08:43:14;;;;;;;4.93;3.03;;;;;;;;;;5057765;28;20041;-63
2021/06/28 08:45:41;;;;;;;5.97;2.72;;;;;;;;;;5039027;28;20055;-63
2021/06/28 08:48:09;;;;;;;4.85;2.53;;;;;;;;;;5056950;28;20191;-63
2021/06/28 08:50:36;;;;;;;4.60;3.10;;;;;;;;;;5041635;28;20153;-62
2021/06/28 08:53:08;;;;;;;3.25;2.95;;;;;;;;;;5056961;28;20179;-63
2021/06/28 08:55:34;;;;;;;5.68;3.25;;;;;;;;;;5031326;28;20036;-62
2021/06/28 08:58:01;;;;;;;4.85;2.88;;;;;;;;;;5058961;28;20032;-63
2021/06/28 09:00:27;;;;;;;7.10;3.05;;;;;;;;;;5039663;28;20036;-63
2021/06/28 09:02:58;;;;;;;3.35;2.35;;;;;;;;;;5054817;28;20761;-64
2021/06/28 09:05:23;;;;;;;2.63;1.80;;;;;;;;;;5057873;28;20028;-64
2021/06/28 09:08:07;;;;;;;3.90;2.28;;;;;;;;;;5056954;28;20039;-64
2021/06/28 09:10:34;;;;;;;5.50;2.53;;;;;;;;;;5057897;28;21951;-64
2021/06/28 09:13:00;;;;;;;2.83;2.10;;;;;;;;;;5058562;28;20060;-64
2021/06/28 09:15:34;;;;;;;2.75;2.13;;;;;;;;;;5057234;28;20030;-64
2021/06/28 09:18:13;;;;;;;5.25;2.42;;;;;;;;;;5038219;28;20027;-64
2021/06/28 09:20:39;;;;;;;5.30;2.45;;;;;;;;;;5041727;28;20028;-64
2021/06/28 09:23:15;;;;;;;4.68;2.40;;;;;;;;;;5046775;28;20681;-64
2021/06/28 09:25:42;;;;;;;3.97;2.20;;;;;;;;;;5056343;28;20036;-64
2021/06/28 09:28:08;;;;;;;4.18;1.88;;;;;;;;;;5056159;28;20467;-65
2021/06/28 09:30:40;;;;;;;3.60;2.17;;;;;;;;;;5037643;28;20032;-63
2021/06/28 09:33:05;;;;;;;5.07;2.50;;;;;;;;;;5024854;28;20028;-64
2021/06/28 09:35:34;;;;;;;2.30;2.08;;;;;;;;;;5047558;28;20604;-63
2021/06/28 09:38:04;;;;;;;2.42;2.08;;;;;;;;;;5056412;28;20028;-64
2021/06/28 09:40:30;;;;;;;4.68;2.42;;;;;;;;;;5032963;28;20032;-64
2021/06/28 09:42:56;;;;;;;5.65;2.00;;;;;;;;;;5056838;28;20044;-64
2021/06/28 09:45:24;;;;;;;2.30;2.10;;;;;;;;;;5057330;28;20044;-65
2021/06/28 09:47:49;;;;;;;7.38;3.15;;;;;;;;;;5032528;28;20036;-64
2021/06/28 09:50:18;;;;;;;2.67;2.40;;;;;;;;;;5055167;28;20040;-65
2021/06/28 09:52:46;;;;;;;4.93;3.28;;;;;;;;;;5057619;28;20078;-64
2021/06/28 09:55:33;;;;;;;3.72;2.03;;;;;;;;;;5043919;28;20041;-64
2021/06/28 09:58:06;;;;;;;2.35;2.15;;;;;;;;;;5023004;28;20036;-65
2021/06/28 10:00:32;;;;;;;5.10;3.25;;;;;;;;;;5043482;28;20687;-65
2021/06/28 10:03:02;;;;;;;3.83;2.85;;;;;;;;;;5046752;28;20096;-64
2021/06/28 10:05:54;;;;;;;8.40;4.00;;;;;;;;;;5057150;28;20039;-64
2021/06/28 10:08:22;;;;;;;6.40;4.57;;;;;;;;;;5047159;28;20040;-64
2021/06/28 10:10:51;;;;;;;4.25;2.67;;;;;;;;;;5048781;28;20063;-65
2021/06/28 10:13:21;;;;;;;3.25;2.60;;;;;;;;;;5056733;28;20958;-64
2021/06/28 10:15:46;;;;;;;3.80;2.70;;;;;;;;;;5057494;28;20036;-64
2021/06/28 10:18:14;;;;;;;4.38;2.20;;;;;;;;;;5056926;28;20036;-66
2021/06/28 10:20:41;;;;;;;4.00;2.40;;;;;;;;;;5035869;28;20107;-64
2021/06/28 10:23:09;;;;;;;4.43;2.38;;;;;;;;;;5055162;28;20560;-65
2021/06/28 10:25:38;;;;;;;3.15;2.30;;;;;;;;;;5055257;28;20036;-64
2021/06/28 10:28:07;;;;;;;3.53;2.38;;;;;;;;;;5056154;28;20056;-63
2021/06/28 10:30:33;;;;;;;3.90;2.30;;;;;;;;;;5055963;28;20048;-65
2021/06/28 10:33:03;;;;;;;2.90;1.92;;;;;;;;;;5055388;28;20643;-64
2021/06/28 10:35:32;;;;;;;5.00;1.92;;;;;;;;;;5054952;28;20613;-64
2021/06/28 10:38:02;;;;;;;2.78;2.20;;;;;;;;;;5054682;28;20071;-64
2021/06/28 10:40:27;;;;;;;2.88;1.95;;;;;;;;;;5038223;28;20031;-64
2021/06/28 10:42:54;;;;;;;3.33;1.90;;;;;;;;;;5026335;28;20043;-64
2021/06/28 10:45:38;;;;;;;3.40;1.75;;;;;;;;;;5036271;28;20052;-64
2021/06/28 10:48:07;;;;;;;2.08;1.55;;;;;;;;;;5022150;28;20124;-63
2021/06/28 10:50:51;;;;;;;2.20;1.90;;;;;;;;;;5038420;28;20028;-64
2021/06/28 10:53:42;;;;;;;3.47;2.20;;;;;;;;;;5039804;28;20024;-63
2021/06/28 10:56:26;;;;;;;5.47;2.17;;;;;;;;;;5021927;28;20140;-64
2021/06/28 10:59:16;;;;;;;6.05;2.40;;;;;;;;;;5047077;28;20036;-64
2021/06/28 11:01:43;;;;;;;4.43;2.35;;;;;;;;;;5049429;28;20028;-64
2021/06/28 11:04:10;;;;;;;10.13;2.75;;;;;;;;;;5032499;28;20096;-65
2021/06/28 11:06:36;;;;;;;2.58;1.90;;;;;;;;;;5042027;28;20037;-64
2021/06/28 11:09:08;;;;;;;2.70;1.65;;;;;;;;;;5060813;28;20032;-62
2021/06/28 11:11:43;;;;;;;1.70;1.60;;;;;;;;;;5049456;28;20159;-64
2021/06/28 11:14:17;;;;;;;3.03;1.92;;;;;;;;;;5050618;28;20044;-64
2021/06/28 11:17:08;;;;;;;3.20;2.05;;;;;;;;;;5060002;28;20093;-63
2021/06/28 11:19:46;;;;;;;4.95;1.85;;;;;;;;;;5026052;28;20075;-64
2021/06/28 11:22:27;;;;;;;2.63;2.00;;;;;;;;;;5049155;28;20112;-64
2021/06/28 11:24:56;;;;;;;4.03;1.85;;;;;;;;;;5027061;28;20040;-63
2021/06/28 11:27:24;;;;;;;4.20;2.00;;;;;;;;;;5049647;28;20481;-65
2021/06/28 11:29:50;;;;;;;4.32;2.15;;;;;;;;;;5059292;28;20032;-64
2021/06/28 11:32:23;;;;;;;3.80;1.90;;;;;;;;;;5059635;28;20024;-67
2021/06/28 11:34:49;;;;;;;4.75;2.03;;;;;;;;;;5056550;28;20060;-66
2021/06/28 11:37:14;;;;;;;2.17;2.00;;;;;;;;;;5059308;28;20058;-63
2021/06/28 11:39:54;;;;;;;2.55;1.77;;;;;;;;;;5059525;28;20020;-64
2021/06/28 11:42:23;;;;;;;2.97;2.20;;;;;;;;;;5057381;28;20693;-63
2021/06/28 11:44:52;;;;;;;1.88;1.77;;;;;;;;;;5046961;28;20997;-64
2021/06/28 11:47:56;;;;;;;1.88;1.77;;;;;;;;;;5037066;28;20040;-62
2021/06/28 11:50:24;;;;;;;4.20;2.15;;;;;;;;;;5004857;28;20326;-64
2021/06/28 11:52:56;;;;;;;2.20;1.98;;;;;;;;;;5032078;28;21992;-63
2021/06/28 11:55:24;;;;;;;2.20;1.92;;;;;;;;;;5039715;28;20151;-65
2021/06/28 11:57:53;;;;;;;2.20;1.92;;;;;;;;;;5052709;28;20063;-62
2021/06/28 12:00:18;;;;;;;1.77;1.63;;;;;;;;;;5036245;28;20059;-64
2021/06/28 12:02:44;;;;;;;3.15;1.88;;;;;;;;;;5035002;28;20905;-64
2021/06/28 12:05:10;;;;;;;5.60;1.58;;;;;;;;;;5027633;28;20036;-63
2021/06/28 12:07:40;;;;;;;1.60;1.50;;;;;;;;;;5038858;28;20052;-63
2021/06/28 12:10:06;;;;;;;1.30;1.30;;;;;;;;;;5038722;28;20024;-64
2021/06/28 12:12:35;;;;;;;2.03;1.88;;;;;;;;;;5039513;28;20057;-63
2021/06/28 12:15:03;;;;;;;1.80;1.70;;;;;;;;;;5022475;28;20072;-63
2021/06/28 12:17:30;;;;;;;3.58;2.03;;;;;;;;;;5043899;28;20024;-64
2021/06/28 12:20:04;;;;;;;2.70;1.52;;;;;;;;;;5038545;28;20032;-65
2021/06/28 12:22:32;;;;;;;1.67;1.58;;;;;;;;;;5042974;28;20029;-62
2021/06/28 12:25:00;;;;;;;1.85;1.65;;;;;;;;;;5038205;28;20040;-63
2021/06/28 12:27:26;;;;;;;1.75;1.30;;;;;;;;;;5044575;28;20041;-65
2021/06/28 12:29:55;;;;;;;1.70;1.50;;;;;;;;;;5038416;28;20040;-64
2021/06/28 12:32:27;;;;;;;2.80;1.63;;;;;;;;;;5033547;28;20044;-64
2021/06/28 12:34:59;;;;;;;3.67;1.70;;;;;;;;;;5035191;28;20029;-63
2021/06/28 12:37:28;;;;;;;4.03;1.58;;;;;;;;;;5037020;28;20028;-64
2021/06/28 12:40:08;;;;;;;1.60;1.50;;;;;;;;;;5045078;28;20678;-64
2021/06/28 12:42:37;;;;;;;1.73;1.63;;;;;;;;;;5032858;28;20125;-67
2021/06/28 12:45:05;;;;;;;1.58;1.48;;;;;;;;;;5052729;28;20037;-64
2021/06/28 12:47:31;;;;;;;2.17;1.60;;;;;;;;;;5008413;28;20139;-63
2021/06/28 12:49:59;;;;;;;7.35;2.97;;;;;;;;;;5053921;28;20024;-63
2021/06/28 12:52:31;;;;;;;6.82;2.90;;;;;;;;;;5055059;28;22053;-63
2021/06/28 12:55:09;;;;;;;6.95;2.90;;;;;;;;;;5024136;28;20028;-62
2021/06/28 12:57:35;;;;;;;3.92;2.72;;;;;;;;;;5045040;28;20020;-63
2021/06/28 13:00:02;;;;;;;4.60;2.92;;;;;;;;;;5048996;28;20090;-63
2021/06/28 13:02:32;;;;;;;4.93;3.38;;;;;;;;;;5033130;28;20986;-63
2021/06/28 13:05:07;;;;;;;7.90;3.70;;;;;;;;;;5054196;28;20036;-62
2021/06/28 13:07:33;;;;;;;9.27;4.80;;;;;;;;;;5035774;28;20036;-61
2021/06/28 13:10:01;;;;;;;5.32;3.67;;;;;;;;;;5046909;28;20021;-62
2021/06/28 13:12:27;;;;;;;13.10;4.78;;;;;;;;;;5029880;28;20043;-63
2021/06/28 13:15:18;;;;;;;11.25;3.90;;;;;;;;;;5037730;28;20032;-62
2021/06/28 13:17:43;;;;;;;5.15;3.63;;;;;;;;;;5054628;28;20028;-64
2021/06/28 13:20:15;;;;;;;8.35;3.95;;;;;;;;;;5024307;28;20036;-65
2021/06/28 13:22:43;;;;;;;10.02;3.80;;;;;;;;;;5055146;28;20020;-63
2021/06/28 13:25:19;;;;;;;4.40;3.13;;;;;;;;;;5054426;28;20033;-63
2021/06/28 13:27:46;;;;;;;4.43;3.40;;;;;;;;;;5037048;28;20083;-63
2021/06/28 13:30:24;;;;;;;9.15;3.83;;;;;;;;;;5040182;28;20062;-63
2021/06/28 13:33:08;;;;;;;8.05;3.08;;;;;;;;;;5045125;28;20150;-63
2021/06/28 13:35:33;;;;;;;9.23;3.53;;;;;;;;;;5056960;28;20048;-63
2021/06/28 13:38:09;;;;;;;6.78;3.45;;;;;;;;;;5055514;28;20033;-64
2021/06/28 13:40:35;;;;;;;8.23;3.55;;;;;;;;;;5056468;28;20044;-63
2021/06/28 13:43:14;;;;;;;5.75;3.45;;;;;;;;;;5055185;28;20056;-64
2021/06/28 13:45:41;;;;;;;5.95;3.60;;;;;;;;;;5056095;28;20052;-62
2021/06/28 13:48:08;;;;;;;13.70;3.83;;;;;;;;;;5055549;28;20020;-62
2021/06/28 13:50:35;;;;;;;5.72;3.90;;;;;;;;;;5056855;28;20028;-64
2021/06/28 13:53:08;;;;;;;9.20;4.72;;;;;;;;;;5040139;28;20095;-62
2021/06/28 13:55:34;;;;;;;11.93;4.50;;;;;;;;;;5039229;28;20490;-64
2021/06/28 13:58:05;;;;;;;10.07;4.03;;;;;;;;;;5054842;28;20024;-63
2021/06/28 14:00:39;;;;;;;8.90;4.22;;;;;;;;;;5034462;28;20032;-63
2021/06/28 14:03:08;;;;;;;10.15;5.63;;;;;;;;;;5040474;28;20089;-63
2021/06/28 14:05:34;;;;;;;8.75;4.93;;;;;;;;;;5028479;28;20032;-62
2021/06/28 14:08:03;;;;;;;8.20;4.75;;;;;;;;;;5056189;28;20024;-63
2021/06/28 14:10:29;;;;;;;7.80;4.50;;;;;;;;;;5042536;28;20196;-63
2021/06/28 14:12:56;;;;;;;9.30;4.40;;;;;;;;;;5056348;28;20450;-63
2021/06/28 14:15:22;;;;;;;6.82;4.95;;;;;;;;;;5056115;28;20040;-63
2021/06/28 14:17:48;;;;;;;14.95;5.07;;;;;;;;;;5037671;28;20756;-63
2021/06/28 14:20:15;;;;;;;10.55;4.68;;;;;;;;;;5046116;28;20042;-63
2021/06/28 14:22:48;;;;;;;11.25;5.38;;;;;;;;;;5027366;28;20028;-62
2021/06/28 14:25:18;;;;;;;11.90;5.10;;;;;;;;;;5041198;28;21094;-63
2021/06/28 14:27:44;;;;;;;10.07;5.30;;;;;;;;;;5055551;28;21068;-64
2021/06/28 14:30:13;;;;;;;8.20;4.80;;;;;;;;;;5038463;28;20028;-62
2021/06/28 14:32:39;;;;;;;10.68;4.97;;;;;;;;;;5038478;28;20024;-62
2021/06/28 14:35:07;;;;;;;7.47;4.68;;;;;;;;;;5039788;28;20479;-62
2021/06/28 14:37:37;;;;;;;10.45;4.55;;;;;;;;;;5043652;28;20036;-62
2021/06/28 14:40:06;;;;;;;7.72;4.90;;;;;;;;;;5042469;28;20427;-62
2021/06/28 14:42:37;;;;;;;11.55;5.28;;;;;;;;;;5059141;28;20052;-63
2021/06/28 14:45:09;;;;;;;10.95;5.05;;;;;;;;;;5060150;28;20495;-60
2021/06/28 14:47:35;;;;;;;8.20;5.05;;;;;;;;;;5041409;28;20464;-62